Midway, AR (72651)

5:37 AM CDT on October 01, 2014 (GMT -0500)
Tank Rea Insurance Agency, Inc. | Change Station
CLOSE
Current Station
Personal Weather Station
Location: Mountain Home, AR
Elevation: 797 ft
Nearby Weather Stations

Elev 797 ft 36.33 °N, 92.38 °W | Updated 4 seconds ago

Clear
Clear
60.8 °F
Feels Like 60.8 °F
N
0.0
Wind Variable Wind from SSW
Gusts 0.0 mph

Today
High -- | Low -- °F
--% Chance of Precip.
Yesterday
High -- | Low -- °F
Precip. -- in
7:04 AM 6:53 PM
Waxing Crescent, 46% visible
Pressure 29.84 in
Visibility 9.0 miles
Clouds Clear
Dew Point 54 °F
Humidity 79%
Rainfall 0.00 in
Snow Depth Not available.
UV 0 out of 12
Pollen 5.20 out of 12
Air Quality Not available.
Flu Activity Not available.
METAR KBPK 010953Z AUTO 13003KT 9SM CLR 17/12 A2987 RMK AO2 SLP105 T01670122

More Conditions Fewer Conditions

Pressure 29.84 in
Visibility 9.0 miles
Clouds Clear
Dew Point 54 °F
Humidity 79%
Rainfall 0.00 in
Snow Depth Not available.
UV 0 out of 12
Pollen 5.20 out of 12
Air Quality Not available.
Flu Activity Not available.
METAR KBPK 010953Z AUTO 13003KT 9SM CLR 17/12 A2987 RMK AO2 SLP105 T01670122

More Conditions Fewer Conditions

10-Day Weather Forecast

Almanac

Astronomy

Oct. 01, 2014 Rise Set
Actual Time 7:04 AM CDT 6:53 PM CDT
Civil Twilight 6:39 AM CDT 7:18 PM CDT
Nautical Twilight 6:09 AM CDT 7:48 PM CDT
Astronomical Twilight 5:39 AM CDT 8:18 PM CDT
Moon 1:58 PM CDT No Moon Set
Length of Visible Light 12h 39m
Length of Day
11h 48m
Tomorrow will be 2m 16s shorter.
Waxing Crescent, 46% of the Moon is Illuminated
Today
Waxing Crescent
Oct 1
First Quarter
Oct 8
Full
Oct 15
Last Quarter
Oct 23
New

Today's Extremes

State Highs State Lows

Community

WunderPhotos

Upload Photos

1,757,905 photos uploaded!

WunderBlogs® & News

Nearby

Snow Depth

Station Depth Elevation
No new snow has been reported.

Earthquake Activity

City Distance Mag. Time & Date
No recent earthquake activity has been reported nearby.
Minimum magnitude displayed is 2.5.

Coastal Water Temperatures

Place Temperature
No Stations Reporting

Nearby Weather Stations